createdAt,value
2023-02-19T00:01:47.479Z,47.53
2023-02-19T00:04:20.384Z,46.10
2023-02-19T00:06:48.660Z,46.97
2023-02-19T00:09:17.709Z,46.23
2023-02-19T00:11:46.291Z,46.40
2023-02-19T00:14:17.604Z,39.63
2023-02-19T00:16:44.959Z,39.90
2023-02-19T00:19:19.880Z,41.13
2023-02-19T00:21:47.518Z,40.60
2023-02-19T00:24:14.957Z,41.17
2023-02-19T00:26:43.502Z,41.47
2023-02-19T00:29:14.805Z,43.10
2023-02-19T00:31:42.813Z,48.77
2023-02-19T00:34:11.353Z,45.23
2023-02-19T00:36:40.952Z,46.93
2023-02-19T00:39:11.528Z,46.40
2023-02-19T00:41:38.527Z,50.80
2023-02-19T00:44:08.029Z,54.00
2023-02-19T00:46:46.345Z,64.07
2023-02-19T00:49:22.367Z,58.17
2023-02-19T00:51:51.149Z,70.10
2023-02-19T00:54:18.953Z,69.20
2023-02-19T00:56:46.155Z,67.27
2023-02-19T00:59:13.333Z,69.63
2023-02-19T01:01:40.552Z,64.80
2023-02-19T01:04:08.163Z,69.17
2023-02-19T01:06:35.775Z,68.23
2023-02-19T01:09:04.771Z,68.20
2023-02-19T01:11:32.488Z,68.20
2023-02-19T01:14:01.192Z,69.17
2023-02-19T01:16:28.614Z,68.43
2023-02-19T01:18:57.336Z,69.87
2023-02-19T01:21:26.047Z,67.63
2023-02-19T01:23:53.795Z,67.03
2023-02-19T01:26:29.868Z,72.20
2023-02-19T01:28:57.401Z,70.23
2023-02-19T01:31:25.334Z,70.50
2023-02-19T01:33:55.605Z,66.33
2023-02-19T01:36:23.026Z,68.30
2023-02-19T01:38:50.245Z,63.70
2023-02-19T01:41:21.139Z,66.43
2023-02-19T01:44:08.092Z,65.00
2023-02-19T01:46:43.313Z,70.17
2023-02-19T01:49:14.842Z,73.20
2023-02-19T01:52:04.707Z,67.97
2023-02-19T01:54:35.642Z,68.13
2023-02-19T01:57:07.755Z,64.30
2023-02-19T01:59:34.838Z,65.40
2023-02-19T02:02:02.215Z,67.80
2023-02-19T02:04:33.111Z,67.60
2023-02-19T02:07:03.265Z,67.07
2023-02-19T02:09:49.884Z,63.60
2023-02-19T02:12:16.804Z,61.17
2023-02-19T02:14:46.845Z,62.43
2023-02-19T02:17:43.734Z,59.33
2023-02-19T02:20:25.615Z,59.70
2023-02-19T02:23:02.227Z,57.53
2023-02-19T02:25:58.198Z,56.93
2023-02-19T02:28:44.086Z,62.97
2023-02-19T02:31:18.439Z,53.37
2023-02-19T02:34:07.701Z,57.03
2023-02-19T02:36:40.960Z,54.60
2023-02-19T02:39:12.958Z,50.70
2023-02-19T02:41:45.756Z,48.63
2023-02-19T02:44:13.326Z,46.57
2023-02-19T02:46:44.735Z,42.50
2023-02-19T02:49:22.139Z,41.73
2023-02-19T02:51:53.801Z,41.00
2023-02-19T02:54:51.879Z,37.13
2023-02-19T02:57:21.265Z,38.77
2023-02-19T02:59:56.927Z,36.90
2023-02-19T03:02:30.944Z,39.10
2023-02-19T03:05:41.209Z,40.57
2023-02-19T03:08:20.320Z,38.73
2023-02-19T03:11:23.802Z,31.60
2023-02-19T03:14:14.151Z,33.63
2023-02-19T03:17:03.512Z,26.20
2023-02-19T03:19:34.114Z,30.80
2023-02-19T03:22:10.255Z,28.53
2023-02-19T03:25:04.068Z,30.20
2023-02-19T03:27:33.840Z,32.83
2023-02-19T03:30:08.060Z,27.50
2023-02-19T03:32:41.982Z,34.80
2023-02-19T03:35:23.086Z,30.00
2023-02-19T03:38:02.401Z,31.27
2023-02-19T03:40:34.497Z,30.93
2023-02-19T03:43:16.605Z,32.03
2023-02-19T03:46:02.273Z,30.67
2023-02-19T03:48:36.261Z,32.70
2023-02-19T03:51:12.288Z,32.13
2023-02-19T03:54:11.717Z,28.40
2023-02-19T03:56:54.282Z,28.33
2023-02-19T03:59:34.777Z,29.30
2023-02-19T04:02:24.418Z,34.03
2023-02-19T04:05:00.520Z,28.97
2023-02-19T04:07:32.967Z,30.07
2023-02-19T04:10:00.700Z,24.43
2023-02-19T04:12:29.606Z,21.07
2023-02-19T04:15:04.357Z,13.10
2023-02-19T04:17:38.735Z,13.10
2023-02-19T04:20:10.018Z,13.27
2023-02-19T04:22:38.717Z,12.63
2023-02-19T04:25:06.216Z,17.50
2023-02-19T04:27:37.337Z,9.60
2023-02-19T04:30:06.277Z,12.43
2023-02-19T04:32:33.242Z,16.37
2023-02-19T04:35:00.304Z,15.13
2023-02-19T04:37:27.195Z,19.70
2023-02-19T04:39:54.027Z,22.20
2023-02-19T04:42:20.953Z,23.70
2023-02-19T04:44:47.906Z,28.60
2023-02-19T04:47:17.741Z,30.27
2023-02-19T04:49:45.599Z,33.50
2023-02-19T04:52:13.299Z,33.53
2023-02-19T04:54:40.097Z,38.43
2023-02-19T04:57:07.073Z,33.90
2023-02-19T04:59:34.130Z,30.60
2023-02-19T05:02:01.189Z,33.97
2023-02-19T05:04:28.239Z,34.80
2023-02-19T05:06:55.315Z,33.80
2023-02-19T05:09:22.230Z,35.97
2023-02-19T05:11:52.200Z,32.90
2023-02-19T05:14:21.854Z,33.63
2023-02-19T05:16:49.047Z,34.10
2023-02-19T05:19:15.999Z,30.00
2023-02-19T05:21:42.980Z,28.53
2023-02-19T05:24:10.091Z,32.90
2023-02-19T05:26:37.085Z,34.03
2023-02-19T05:29:04.266Z,33.07
2023-02-19T05:31:33.779Z,28.23
2023-02-19T05:34:01.077Z,34.13
2023-02-19T05:36:28.061Z,28.90
2023-02-19T05:38:56.626Z,26.97
2023-02-19T05:41:29.111Z,27.83
2023-02-19T05:43:57.433Z,26.60
2023-02-19T05:46:29.974Z,26.57
2023-02-19T05:48:58.415Z,30.17
2023-02-19T05:51:28.378Z,31.07
2023-02-19T05:53:56.720Z,28.77
2023-02-19T05:56:36.861Z,29.23
2023-02-19T05:59:16.065Z,29.33
2023-02-19T06:01:46.807Z,28.03
2023-02-19T06:04:14.604Z,28.80
2023-02-19T06:06:42.203Z,30.00
2023-02-19T06:09:11.953Z,30.00
2023-02-19T06:11:39.440Z,32.90
2023-02-19T06:14:10.288Z,26.80
2023-02-19T06:16:44.831Z,28.13
2023-02-19T06:19:11.801Z,24.70
2023-02-19T06:21:38.681Z,25.73
2023-02-19T06:24:11.910Z,32.07
2023-02-19T06:26:41.512Z,23.10
2023-02-19T06:29:09.002Z,24.27
2023-02-19T06:31:35.962Z,24.03
2023-02-19T06:34:09.839Z,21.43
2023-02-19T06:36:36.759Z,26.93
2023-02-19T06:39:07.071Z,21.97
2023-02-19T06:41:40.237Z,21.93
2023-02-19T06:44:12.495Z,19.23
2023-02-19T06:46:39.627Z,20.13
2023-02-19T06:49:07.332Z,19.37
2023-02-19T06:51:34.733Z,21.40
2023-02-19T06:54:04.611Z,19.73
2023-02-19T06:56:34.522Z,23.40
2023-02-19T06:59:04.447Z,27.10
2023-02-19T07:01:33.096Z,27.37
2023-02-19T07:04:04.249Z,23.83
2023-02-19T07:06:31.313Z,26.57
2023-02-19T07:09:00.011Z,24.07
2023-02-19T07:11:31.654Z,21.77
2023-02-19T07:14:00.305Z,28.37
2023-02-19T07:16:27.451Z,30.07
2023-02-19T07:18:58.020Z,25.80
2023-02-19T07:21:25.262Z,24.80
2023-02-19T07:23:52.726Z,28.20
2023-02-19T07:26:21.142Z,27.53
2023-02-19T07:28:50.161Z,26.03
2023-02-19T07:31:19.430Z,26.70
2023-02-19T07:33:47.462Z,24.93
2023-02-19T07:36:16.580Z,21.97
2023-02-19T07:38:43.944Z,24.90
2023-02-19T07:41:11.402Z,26.03
2023-02-19T07:43:39.656Z,22.63
2023-02-19T07:46:09.266Z,20.63
2023-02-19T07:48:37.453Z,25.17
2023-02-19T07:51:06.436Z,22.73
2023-02-19T07:53:35.123Z,20.77
2023-02-19T07:56:05.830Z,16.27
2023-02-19T07:58:33.353Z,13.00
2023-02-19T08:01:09.210Z,14.60
2023-02-19T08:03:37.868Z,11.63
2023-02-19T08:06:06.825Z,11.50
2023-02-19T08:08:33.926Z,19.40
2023-02-19T08:11:21.801Z,12.37
2023-02-19T08:13:50.378Z,12.30
2023-02-19T08:16:29.721Z,9.47
2023-02-19T08:19:00.583Z,14.93
2023-02-19T08:21:27.541Z,14.13
2023-02-19T08:23:54.471Z,17.00
2023-02-19T08:26:21.468Z,15.70
2023-02-19T08:28:51.558Z,15.73
2023-02-19T08:31:18.664Z,16.10
2023-02-19T08:33:45.617Z,15.37
2023-02-19T08:36:12.529Z,14.77
2023-02-19T08:38:39.429Z,14.97
2023-02-19T08:41:08.949Z,19.03
2023-02-19T08:43:36.537Z,15.27
2023-02-19T08:46:04.096Z,15.13
2023-02-19T08:48:31.052Z,14.37
2023-02-19T08:51:07.131Z,11.87
2023-02-19T08:53:35.704Z,13.07
2023-02-19T08:56:17.497Z,11.90
2023-02-19T08:58:45.127Z,10.67
2023-02-19T09:01:15.508Z,11.10
2023-02-19T09:03:43.001Z,10.33
2023-02-19T09:06:20.383Z,14.23
2023-02-19T09:08:47.431Z,8.93
2023-02-19T09:11:14.833Z,9.23
2023-02-19T09:13:42.226Z,8.87
2023-02-19T09:16:09.632Z,7.93
2023-02-19T09:18:36.861Z,7.17
2023-02-19T09:21:05.645Z,11.20
2023-02-19T09:23:34.490Z,6.77
2023-02-19T09:26:03.220Z,8.90
2023-02-19T09:28:30.220Z,9.83
2023-02-19T09:30:57.319Z,5.07
2023-02-19T09:33:24.325Z,5.17
2023-02-19T09:35:51.359Z,5.40
2023-02-19T09:38:18.204Z,10.93
2023-02-19T09:40:45.320Z,5.83
2023-02-19T09:43:21.834Z,8.47
2023-02-19T09:45:51.221Z,5.33
2023-02-19T09:48:18.193Z,6.37
2023-02-19T09:50:48.746Z,4.57
2023-02-19T09:53:26.484Z,4.63
2023-02-19T09:55:53.796Z,4.53
2023-02-19T09:58:32.076Z,6.00
2023-02-19T10:01:02.117Z,5.30
2023-02-19T10:03:36.071Z,4.03
2023-02-19T10:06:23.406Z,7.30
2023-02-19T10:09:00.016Z,6.83
2023-02-19T10:11:27.299Z,8.83
2023-02-19T10:14:05.519Z,6.30
2023-02-19T10:16:33.699Z,6.83
2023-02-19T10:19:01.240Z,7.17
2023-02-19T10:21:28.672Z,7.97
2023-02-19T10:24:01.763Z,18.70
2023-02-19T10:26:31.832Z,7.57
2023-02-19T10:28:58.748Z,6.00
2023-02-19T10:31:26.518Z,10.17
2023-02-19T10:33:55.544Z,5.60
2023-02-19T10:36:29.851Z,5.43
2023-02-19T10:39:00.532Z,4.70
2023-02-19T10:41:28.713Z,3.77
2023-02-19T10:44:18.869Z,3.00
2023-02-19T10:46:48.095Z,3.30
2023-02-19T10:49:36.137Z,7.30
2023-02-19T10:52:21.507Z,2.30
2023-02-19T10:55:15.759Z,2.43
2023-02-19T10:57:42.924Z,5.77
2023-02-19T11:00:15.839Z,7.73
2023-02-19T11:02:47.618Z,5.30
2023-02-19T11:05:20.026Z,4.57
2023-02-19T11:07:54.847Z,3.50
2023-02-19T11:10:27.938Z,2.37
2023-02-19T11:13:00.832Z,1.90
2023-02-19T11:15:36.470Z,4.00
2023-02-19T11:18:20.550Z,3.97
2023-02-19T11:21:02.452Z,3.77
2023-02-19T11:23:31.098Z,4.57
2023-02-19T11:26:01.655Z,3.13
2023-02-19T11:28:43.379Z,3.70
2023-02-19T11:31:19.550Z,2.70
2023-02-19T11:33:52.592Z,2.10
2023-02-19T11:36:30.651Z,2.97
2023-02-19T11:38:59.822Z,3.60
2023-02-19T11:41:51.117Z,3.37
2023-02-19T11:44:46.995Z,3.57
2023-02-19T11:47:47.082Z,2.80
2023-02-19T11:50:38.662Z,3.10
2023-02-19T11:53:21.278Z,2.80
2023-02-19T11:56:37.252Z,2.50
2023-02-19T11:59:31.327Z,4.03
2023-02-19T12:02:26.242Z,2.93
2023-02-19T12:04:56.143Z,3.43
2023-02-19T12:07:50.704Z,3.47
2023-02-19T12:10:35.416Z,3.03
2023-02-19T12:13:21.725Z,2.70
2023-02-19T12:18:38.201Z,3.00
2023-02-19T12:21:17.154Z,3.17
2023-02-19T12:24:16.726Z,3.13
2023-02-19T12:27:07.040Z,3.30
2023-02-19T12:29:54.816Z,3.83
2023-02-19T12:32:42.951Z,2.50
2023-02-19T12:35:13.055Z,2.63
2023-02-19T12:38:01.570Z,2.30
2023-02-19T12:40:31.652Z,2.23
2023-02-19T12:43:07.005Z,2.17
2023-02-19T12:45:44.056Z,4.43
2023-02-19T12:48:20.077Z,2.80
2023-02-19T12:50:52.472Z,2.97
2023-02-19T12:53:51.838Z,2.07
2023-02-19T12:56:25.385Z,3.27
2023-02-19T12:59:02.339Z,4.40
2023-02-19T13:01:35.313Z,4.73
2023-02-19T13:04:33.156Z,3.33
2023-02-19T13:07:14.310Z,2.77
2023-02-19T13:09:44.389Z,2.40
2023-02-19T13:12:21.493Z,2.60
2023-02-19T13:15:07.220Z,2.93
2023-02-19T13:17:49.335Z,3.73
2023-02-19T13:20:37.733Z,3.50
2023-02-19T13:23:47.338Z,3.67
2023-02-19T13:26:23.492Z,3.30
2023-02-19T13:29:18.191Z,3.13
2023-02-19T13:31:48.510Z,4.07
2023-02-19T13:34:47.934Z,4.63
2023-02-19T13:37:16.969Z,2.43
2023-02-19T13:39:53.111Z,2.20
2023-02-19T13:42:35.728Z,2.30
2023-02-19T13:45:05.019Z,2.33
2023-02-19T13:47:59.309Z,2.77
2023-02-19T13:50:32.737Z,2.00
2023-02-19T13:53:01.637Z,4.90
2023-02-19T13:55:51.375Z,8.60
2023-02-19T13:58:33.642Z,2.23
2023-02-19T14:01:12.043Z,3.40
2023-02-19T14:03:40.930Z,5.83
2023-02-19T14:06:10.280Z,5.00
2023-02-19T14:08:57.996Z,4.70
2023-02-19T14:11:43.979Z,4.43
2023-02-19T14:14:28.867Z,2.80
2023-02-19T14:17:04.568Z,2.90
2023-02-19T14:19:47.580Z,3.33
2023-02-19T14:23:05.719Z,2.30
2023-02-19T14:25:46.269Z,2.87
2023-02-19T14:28:16.194Z,3.97
2023-02-19T14:30:53.908Z,4.53
2023-02-19T14:33:36.435Z,3.77
2023-02-19T14:36:19.098Z,2.77
2023-02-19T14:38:56.430Z,2.83
2023-02-19T14:41:24.536Z,2.80
2023-02-19T14:43:55.371Z,2.80
2023-02-19T14:46:32.459Z,2.40
2023-02-19T14:49:13.002Z,2.83
2023-02-19T14:51:44.263Z,3.43
2023-02-19T14:54:19.703Z,3.60
2023-02-19T14:56:52.903Z,3.27
2023-02-19T14:59:19.837Z,2.70
2023-02-19T15:01:53.197Z,2.57
2023-02-19T15:04:26.077Z,4.27
2023-02-19T15:06:56.690Z,3.30
2023-02-19T15:09:33.360Z,3.17
2023-02-19T15:12:02.805Z,3.17
2023-02-19T15:14:32.239Z,3.20
2023-02-19T15:17:03.243Z,3.17
2023-02-19T15:19:35.071Z,4.70
2023-02-19T15:22:03.231Z,6.40
2023-02-19T15:24:30.429Z,4.83
2023-02-19T15:26:57.637Z,10.17
2023-02-19T15:29:26.980Z,3.90
2023-02-19T15:31:58.875Z,6.67
2023-02-19T15:34:31.014Z,4.10
2023-02-19T15:37:12.774Z,4.63
2023-02-19T15:39:47.253Z,4.17
2023-02-19T15:42:35.034Z,12.07
2023-02-19T15:45:19.712Z,5.80
2023-02-19T15:47:52.162Z,8.03
2023-02-19T15:50:27.328Z,11.70
2023-02-19T15:53:12.767Z,10.20
2023-02-19T15:55:42.042Z,9.37
2023-02-19T15:58:29.878Z,43.23
2023-02-19T16:01:08.293Z,16.57
2023-02-19T16:03:35.810Z,11.90
2023-02-19T16:06:14.773Z,20.90
2023-02-19T16:08:46.975Z,34.93
2023-02-19T16:11:22.831Z,24.60
2023-02-19T16:13:51.489Z,19.50
2023-02-19T16:16:25.358Z,8.77
2023-02-19T16:18:53.614Z,8.43
2023-02-19T16:21:38.080Z,7.83
2023-02-19T16:24:31.207Z,8.50
2023-02-19T16:26:59.208Z,5.87
2023-02-19T16:29:30.365Z,6.73
2023-02-19T16:32:00.155Z,6.73
2023-02-19T16:34:51.180Z,7.43
2023-02-19T16:37:36.228Z,9.77
2023-02-19T16:40:09.329Z,12.27
2023-02-19T16:42:38.131Z,8.47
2023-02-19T16:45:08.432Z,10.77
2023-02-19T16:47:40.590Z,12.60
2023-02-19T16:50:13.276Z,11.33
2023-02-19T16:52:52.183Z,11.40
2023-02-19T16:55:19.250Z,10.60
2023-02-19T16:57:46.299Z,8.43
2023-02-19T17:00:17.370Z,8.90
2023-02-19T17:02:52.570Z,8.73
2023-02-19T17:05:24.258Z,12.57
2023-02-19T17:07:51.667Z,14.47
2023-02-19T17:10:23.136Z,13.90
2023-02-19T17:12:56.108Z,14.33
2023-02-19T17:15:25.831Z,13.17
2023-02-19T17:17:53.166Z,13.37
2023-02-19T17:20:27.677Z,18.80
2023-02-19T17:22:56.014Z,21.93
2023-02-19T17:25:23.345Z,23.10
2023-02-19T17:27:51.202Z,12.63
2023-02-19T17:30:25.836Z,13.00
2023-02-19T17:32:55.266Z,30.03
2023-02-19T17:35:22.267Z,18.30
2023-02-19T17:37:49.916Z,16.50
2023-02-19T17:40:32.818Z,16.70
2023-02-19T17:43:04.387Z,16.37
2023-02-19T17:45:32.184Z,18.50
2023-02-19T17:48:02.397Z,15.80
2023-02-19T17:50:31.978Z,15.83
2023-02-19T17:52:59.300Z,23.43
2023-02-19T17:55:26.692Z,17.77
2023-02-19T17:57:54.359Z,31.17
2023-02-19T18:00:27.588Z,19.30
2023-02-19T18:02:57.980Z,19.07
2023-02-19T18:05:27.131Z,12.27
2023-02-19T18:07:54.285Z,18.03
2023-02-19T18:10:23.581Z,12.53
2023-02-19T18:12:50.746Z,12.87
2023-02-19T18:15:23.341Z,13.43
2023-02-19T18:17:50.357Z,14.47
2023-02-19T18:20:25.994Z,15.90
2023-02-19T18:22:54.168Z,26.93
2023-02-19T18:25:22.321Z,18.53
2023-02-19T18:27:49.743Z,16.03
2023-02-19T18:30:19.589Z,20.87
2023-02-19T18:32:49.806Z,23.23
2023-02-19T18:35:18.902Z,21.60
2023-02-19T18:37:49.168Z,20.67
2023-02-19T18:40:16.269Z,26.83
2023-02-19T18:42:43.234Z,30.60
2023-02-19T18:45:10.286Z,23.17
2023-02-19T18:47:37.234Z,17.80
2023-02-19T18:50:04.536Z,15.87
2023-02-19T18:52:31.473Z,12.83
2023-02-19T18:54:58.516Z,13.60
2023-02-19T18:57:28.760Z,13.57
2023-02-19T18:59:55.799Z,14.90
2023-02-19T19:02:23.247Z,16.33
2023-02-19T19:04:54.305Z,18.20
2023-02-19T19:07:22.354Z,15.73
2023-02-19T19:09:49.442Z,13.00
2023-02-19T19:12:16.895Z,11.23
2023-02-19T19:14:45.287Z,12.33
2023-02-19T19:17:12.305Z,11.53
2023-02-19T19:19:40.557Z,17.47
2023-02-19T19:22:07.500Z,10.53
2023-02-19T19:24:34.492Z,9.27
2023-02-19T19:27:01.544Z,11.30
2023-02-19T19:29:28.746Z,11.00
2023-02-19T19:31:55.747Z,11.63
2023-02-19T19:34:22.725Z,16.67
2023-02-19T19:36:49.723Z,14.83
2023-02-19T19:39:16.683Z,15.03
2023-02-19T19:41:43.718Z,19.63
2023-02-19T19:44:10.671Z,18.07
2023-02-19T19:46:44.987Z,14.03
2023-02-19T19:49:12.773Z,19.93
2023-02-19T19:51:39.704Z,13.53
2023-02-19T19:54:08.407Z,16.30
2023-02-19T19:56:44.024Z,12.60
2023-02-19T19:59:12.047Z,11.43
2023-02-19T20:01:40.746Z,11.77
2023-02-19T20:04:07.711Z,11.57
2023-02-19T20:06:34.766Z,12.07
2023-02-19T20:09:01.840Z,13.07
2023-02-19T20:11:28.790Z,12.23
2023-02-19T20:13:56.348Z,15.50
2023-02-19T20:16:29.500Z,10.20
2023-02-19T20:18:56.713Z,9.50
2023-02-19T20:21:23.891Z,12.90
2023-02-19T20:23:50.931Z,10.77
2023-02-19T20:26:29.116Z,8.60
2023-02-19T20:28:56.618Z,10.67
2023-02-19T20:31:24.086Z,8.97
2023-02-19T20:33:51.797Z,11.47
2023-02-19T20:36:20.218Z,10.13
2023-02-19T20:38:49.451Z,10.80
2023-02-19T20:41:16.728Z,10.73
2023-02-19T20:43:43.815Z,10.50
2023-02-19T20:46:11.292Z,12.10
2023-02-19T20:48:38.690Z,10.73
2023-02-19T20:51:06.106Z,9.80
2023-02-19T20:53:33.546Z,10.97
2023-02-19T20:56:00.573Z,11.63
2023-02-19T20:58:27.619Z,10.03
2023-02-19T21:00:54.651Z,11.40
2023-02-19T21:03:22.196Z,13.07
2023-02-19T21:05:49.224Z,16.00
2023-02-19T21:08:17.335Z,12.33
2023-02-19T21:10:47.840Z,14.33
2023-02-19T21:13:14.883Z,12.80
2023-02-19T21:15:41.975Z,10.87
2023-02-19T21:18:09.177Z,11.33
2023-02-19T21:20:36.127Z,12.07
2023-02-19T21:23:03.590Z,12.70
2023-02-19T21:25:33.283Z,16.40
2023-02-19T21:28:00.345Z,17.63
2023-02-19T21:30:27.442Z,15.97
2023-02-19T21:32:54.430Z,20.47
2023-02-19T21:35:21.506Z,21.13
2023-02-19T21:37:48.391Z,24.53
2023-02-19T21:40:15.428Z,21.70
2023-02-19T21:42:42.306Z,26.13
2023-02-19T21:45:09.422Z,20.10
2023-02-19T21:47:36.388Z,24.13
2023-02-19T21:50:03.382Z,22.93
2023-02-19T21:52:31.205Z,24.03
2023-02-19T21:54:58.275Z,25.43
2023-02-19T21:57:25.226Z,25.13
2023-02-19T21:59:52.266Z,24.53
2023-02-19T22:02:22.130Z,23.90
2023-02-19T22:04:55.355Z,26.97
2023-02-19T22:07:22.535Z,27.93
2023-02-19T22:09:50.546Z,27.17
2023-02-19T22:12:18.879Z,26.37
2023-02-19T22:14:46.242Z,25.83
2023-02-19T22:17:13.428Z,25.30
2023-02-19T22:19:40.493Z,22.23
2023-02-19T22:22:07.489Z,20.40
2023-02-19T22:24:34.366Z,22.53
2023-02-19T22:27:01.370Z,25.37
2023-02-19T22:29:28.819Z,21.77
2023-02-19T22:31:55.952Z,21.57
2023-02-19T22:34:22.988Z,24.90
2023-02-19T22:36:49.959Z,17.60
2023-02-19T22:39:25.982Z,18.13
2023-02-19T22:41:53.998Z,18.03
2023-02-19T22:44:21.073Z,20.00
2023-02-19T22:46:53.242Z,18.97
2023-02-19T22:49:21.494Z,21.23
2023-02-19T22:52:00.142Z,20.93
2023-02-19T22:54:27.598Z,18.10
2023-02-19T22:56:55.128Z,19.07
2023-02-19T22:59:22.635Z,20.37
2023-02-19T23:01:50.694Z,19.93
2023-02-19T23:04:19.150Z,22.07
2023-02-19T23:06:46.299Z,20.77
2023-02-19T23:09:17.603Z,19.50
2023-02-19T23:11:44.940Z,20.87
2023-02-19T23:14:13.044Z,20.30
2023-02-19T23:16:40.113Z,21.57
2023-02-19T23:19:12.577Z,24.30
2023-02-19T23:21:40.990Z,20.07
2023-02-19T23:24:08.203Z,20.83
2023-02-19T23:26:35.671Z,23.27
2023-02-19T23:29:03.084Z,22.17
2023-02-19T23:31:30.046Z,21.87
2023-02-19T23:33:57.020Z,22.90
2023-02-19T23:36:24.152Z,23.37
2023-02-19T23:38:51.146Z,23.43
2023-02-19T23:41:19.315Z,28.10
2023-02-19T23:43:46.502Z,26.70
2023-02-19T23:46:17.332Z,27.50
2023-02-19T23:48:45.972Z,31.00
2023-02-19T23:51:13.039Z,34.03
2023-02-19T23:53:40.036Z,32.13
2023-02-19T23:56:07.441Z,33.40
2023-02-19T23:58:34.337Z,32.90
